Time;durP1;ratioP1;P1;durP2;ratioP2;P2;SDS_P1;SDS_P2;PMS_P1;PMS_P2;Temp;Humidity;BMP_temperature;BMP_pressure;BME280_temperature;BME280_humidity;BME280_pressure;Samples;Min_cycle;Max_cycle;Signal;HPM_P1;HPM_P2
2021/08/04 00:01:48;;;;;;;1.30;1.30;;;26.20;45.10;;;;;;5067565;28;20450;-86
2021/08/04 00:04:18;;;;;;;1.07;1.07;;;26.20;45.10;;;;;;5067610;28;20477;-86
2021/08/04 00:06:46;;;;;;;1.00;1.00;;;26.10;45.00;;;;;;5067758;28;20416;-86
2021/08/04 00:09:14;;;;;;;1.30;1.20;;;26.10;45.10;;;;;;5067544;28;20400;-86
2021/08/04 00:11:42;;;;;;;1.10;1.00;;;26.10;45.00;;;;;;5067327;28;20434;-86
2021/08/04 00:14:10;;;;;;;1.47;1.27;;;26.10;45.10;;;;;;5067723;28;20412;-86
2021/08/04 00:16:38;;;;;;;1.37;1.30;;;26.10;45.20;;;;;;5067412;28;20489;-86
2021/08/04 00:19:06;;;;;;;1.20;1.20;;;26.10;45.20;;;;;;5067302;28;20499;-87
2021/08/04 00:21:36;;;;;;;1.20;1.20;;;26.10;45.20;;;;;;5066963;28;20483;-86
2021/08/04 00:24:04;;;;;;;1.33;1.00;;;26.00;45.10;;;;;;5067950;28;20467;-86
2021/08/04 00:26:32;;;;;;;1.30;1.30;;;26.00;45.20;;;;;;5067468;28;20434;-86
2021/08/04 00:29:00;;;;;;;1.10;1.10;;;26.00;45.10;;;;;;5067560;28;20457;-86
2021/08/04 00:31:28;;;;;;;2.00;1.33;;;26.00;45.20;;;;;;5067312;28;20501;-82
2021/08/04 00:33:56;;;;;;;1.20;1.20;;;25.90;45.00;;;;;;5067443;28;20425;-87
2021/08/04 00:36:24;;;;;;;0.90;0.90;;;25.90;45.10;;;;;;5067385;28;20416;-89
2021/08/04 00:38:53;;;;;;;1.30;1.20;;;25.90;45.00;;;;;;5067245;28;20404;-87
2021/08/04 00:41:21;;;;;;;1.00;1.00;;;25.90;45.00;;;;;;5067093;28;20440;-86
2021/08/04 00:43:52;;;;;;;1.10;1.10;;;25.90;45.10;;;;;;5067029;28;20551;-86
2021/08/04 00:46:20;;;;;;;1.10;1.10;;;25.90;45.10;;;;;;5067150;28;20434;-86
2021/08/04 00:48:49;;;;;;;1.13;1.13;;;25.80;45.00;;;;;;5066961;28;20525;-86
2021/08/04 00:51:17;;;;;;;1.00;1.00;;;25.80;45.00;;;;;;5066813;28;20425;-86
2021/08/04 00:53:45;;;;;;;1.17;1.17;;;25.80;45.10;;;;;;5066805;28;20511;-86
2021/08/04 00:56:14;;;;;;;1.00;0.90;;;25.80;45.10;;;;;;5066657;28;20486;-87
2021/08/04 00:58:42;;;;;;;1.37;1.00;;;25.70;45.00;;;;;;5065993;28;20432;-87
2021/08/04 01:01:13;;;;;;;3.70;1.03;;;25.70;45.00;;;;;;5066726;28;20446;-87
2021/08/04 01:03:43;;;;;;;1.00;1.00;;;25.70;45.10;;;;;;5066658;28;20411;-87
2021/08/04 01:06:14;;;;;;;0.90;0.90;;;25.70;45.00;;;;;;5067018;28;20416;-87
2021/08/04 01:08:43;;;;;;;1.30;1.20;;;25.70;45.10;;;;;;5066013;28;20470;-87
2021/08/04 01:11:17;;;;;;;1.10;1.00;;;25.60;45.10;;;;;;5066636;28;20479;-86
2021/08/04 01:13:47;;;;;;;1.00;1.00;;;25.60;45.00;;;;;;5066759;28;20433;-86
2021/08/04 01:16:18;;;;;;;0.90;0.90;;;25.50;45.10;;;;;;5066455;28;20434;-87
2021/08/04 01:18:47;;;;;;;1.00;1.00;;;25.50;45.00;;;;;;5066685;28;20424;-86
2021/08/04 01:21:15;;;;;;;0.90;0.90;;;25.50;45.10;;;;;;5066137;28;20653;-86
2021/08/04 01:23:45;;;;;;;1.10;1.10;;;25.50;45.00;;;;;;5061191;28;20448;-86
2021/08/04 01:26:27;;;;;;;1.00;1.00;;;25.50;45.10;;;;;;5066035;28;20483;-86
2021/08/04 01:28:55;;;;;;;1.10;1.10;;;25.50;45.10;;;;;;5066132;28;20512;-86
2021/08/04 01:31:24;;;;;;;0.90;0.90;;;25.40;45.10;;;;;;5065839;28;20420;-86
2021/08/04 01:33:53;;;;;;;1.30;1.20;;;25.40;45.00;;;;;;5066003;28;20456;-86
2021/08/04 01:36:20;;;;;;;0.80;0.80;;;25.40;45.00;;;;;;5056392;28;20454;-86
2021/08/04 01:38:48;;;;;;;1.00;1.00;;;25.40;45.10;;;;;;5052927;28;20498;-86
2021/08/04 01:41:17;;;;;;;1.13;0.97;;;25.40;45.10;;;;;;5062223;28;20457;-86
2021/08/04 01:43:47;;;;;;;1.53;0.97;;;25.30;45.10;;;;;;5065912;28;20426;-86
2021/08/04 01:46:15;;;;;;;0.90;0.90;;;25.30;45.00;;;;;;5065230;28;20497;-86
2021/08/04 01:48:45;;;;;;;1.00;0.90;;;25.30;45.70;;;;;;5065482;28;20420;-86
2021/08/04 01:51:13;;;;;;;1.80;0.90;;;25.30;45.10;;;;;;5065838;28;20479;-86
2021/08/04 01:53:44;;;;;;;1.00;0.90;;;25.30;45.10;;;;;;5065852;28;20412;-87
2021/08/04 01:56:14;;;;;;;1.00;1.00;;;25.30;45.10;;;;;;5069745;28;20490;-87
2021/08/04 01:58:42;;;;;;;1.10;0.90;;;25.20;45.00;;;;;;5066182;28;20449;-86
2021/08/04 02:01:13;;;;;;;0.97;0.97;;;25.20;45.10;;;;;;5065471;28;20499;-87
2021/08/04 02:03:41;;;;;;;1.07;0.97;;;25.20;45.00;;;;;;5066086;28;20458;-87
2021/08/04 02:06:12;;;;;;;1.10;1.10;;;25.20;45.10;;;;;;5065413;28;20525;-87
2021/08/04 02:08:42;;;;;;;0.90;0.80;;;25.20;45.10;;;;;;5065560;28;20529;-86
2021/08/04 02:11:13;;;;;;;1.10;1.10;;;25.20;45.10;;;;;;5065619;28;20466;-87
2021/08/04 02:13:45;;;;;;;0.90;0.90;;;25.20;45.00;;;;;;5065282;28;20442;-87
2021/08/04 02:16:26;;;;;;;1.20;1.10;;;25.10;45.00;;;;;;5065520;28;20433;-87
2021/08/04 02:19:00;;;;;;;1.30;1.20;;;25.10;45.00;;;;;;5064788;28;20500;-86
2021/08/04 02:21:28;;;;;;;1.27;0.90;;;25.10;45.00;;;;;;5065384;28;20419;-87
2021/08/04 02:23:56;;;;;;;1.10;1.00;;;25.10;45.00;;;;;;5065020;28;20488;-87
2021/08/04 02:26:24;;;;;;;0.90;0.90;;;25.10;45.00;;;;;;5064771;28;20448;-87
2021/08/04 02:28:54;;;;;;;3.00;1.00;;;25.10;45.00;;;;;;5064933;28;20428;-87
2021/08/04 02:31:23;;;;;;;0.80;0.80;;;25.00;45.00;;;;;;5064648;28;20445;-87
2021/08/04 02:33:51;;;;;;;0.80;0.80;;;25.00;45.00;;;;;;5065304;28;20452;-87
2021/08/04 02:36:19;;;;;;;1.00;1.00;;;25.00;45.00;;;;;;5065611;28;20432;-87
2021/08/04 02:38:47;;;;;;;0.93;0.80;;;25.00;45.00;;;;;;5064739;28;20434;-86
2021/08/04 02:41:16;;;;;;;0.80;0.80;;;25.00;45.00;;;;;;5064450;28;20503;-86
2021/08/04 02:43:44;;;;;;;1.00;0.90;;;25.00;45.00;;;;;;5064850;28;20408;-85
2021/08/04 02:46:12;;;;;;;1.00;0.90;;;24.90;45.00;;;;;;5064321;28;20487;-86
2021/08/04 02:48:41;;;;;;;1.00;0.80;;;24.90;45.00;;;;;;5064536;28;20424;-85
2021/08/04 02:51:10;;;;;;;0.90;0.90;;;24.90;45.00;;;;;;5064185;28;20408;-84
2021/08/04 02:53:38;;;;;;;1.03;0.93;;;24.90;44.90;;;;;;5064403;28;20397;-83
2021/08/04 02:56:06;;;;;;;1.33;0.80;;;24.90;45.00;;;;;;5064201;28;20420;-83
2021/08/04 02:58:39;;;;;;;0.90;0.90;;;24.80;44.90;;;;;;5064576;28;20494;-84
2021/08/04 03:01:07;;;;;;;0.90;0.90;;;24.80;45.00;;;;;;5064594;28;20446;-84
2021/08/04 03:03:36;;;;;;;0.87;0.87;;;24.80;44.90;;;;;;5064304;28;20430;-84
2021/08/04 03:06:06;;;;;;;1.10;0.80;;;24.80;44.90;;;;;;5064405;28;20523;-84
2021/08/04 03:08:34;;;;;;;1.27;0.90;;;24.80;44.90;;;;;;5064345;28;20442;-84
2021/08/04 03:11:02;;;;;;;0.80;0.80;;;24.80;44.90;;;;;;5064228;28;20437;-84
2021/08/04 03:13:30;;;;;;;1.00;0.90;;;24.80;44.90;;;;;;5064338;28;20396;-84
2021/08/04 03:15:58;;;;;;;1.00;1.00;;;24.80;44.90;;;;;;5064496;28;20471;-84
2021/08/04 03:18:26;;;;;;;0.90;0.90;;;24.80;44.90;;;;;;5064198;28;20440;-84
2021/08/04 03:20:54;;;;;;;0.83;0.83;;;24.70;44.90;;;;;;5063474;28;20505;-84
2021/08/04 03:23:24;;;;;;;0.80;0.80;;;24.70;44.90;;;;;;5064416;28;20474;-84
2021/08/04 03:25:52;;;;;;;0.80;0.80;;;24.70;44.90;;;;;;5064489;28;20497;-84
2021/08/04 03:28:20;;;;;;;0.90;0.90;;;24.70;44.90;;;;;;5064278;28;20432;-85
2021/08/04 03:30:48;;;;;;;1.00;1.00;;;24.70;44.90;;;;;;5065516;28;20465;-84
2021/08/04 03:33:16;;;;;;;0.90;0.90;;;24.60;44.90;;;;;;5065063;28;20484;-84
2021/08/04 03:35:44;;;;;;;0.87;0.87;;;24.60;44.90;;;;;;5065778;28;20421;-83
2021/08/04 03:38:11;;;;;;;0.97;0.70;;;24.60;45.00;;;;;;5064659;28;20424;-84
2021/08/04 03:40:41;;;;;;;0.80;0.80;;;24.60;45.00;;;;;;5064368;28;20420;-84
2021/08/04 03:43:09;;;;;;;2.80;1.13;;;24.60;45.00;;;;;;5063899;28;20442;-83
2021/08/04 03:45:42;;;;;;;1.17;1.17;;;24.60;45.00;;;;;;5064311;28;20510;-84
2021/08/04 03:48:10;;;;;;;0.87;0.87;;;24.60;45.00;;;;;;5064630;28;20447;-84
2021/08/04 03:50:38;;;;;;;0.90;0.90;;;24.60;45.00;;;;;;5063794;28;20509;-84
2021/08/04 03:53:06;;;;;;;0.90;0.90;;;24.60;45.00;;;;;;5064022;28;20444;-84
2021/08/04 03:55:34;;;;;;;1.13;0.90;;;24.50;44.90;;;;;;5063962;28;20441;-84
2021/08/04 03:58:03;;;;;;;0.93;0.93;;;24.60;45.00;;;;;;5064417;28;20460;-84
2021/08/04 04:00:32;;;;;;;0.90;0.80;;;24.60;45.00;;;;;;5064080;28;20494;-84
2021/08/04 04:03:00;;;;;;;1.27;0.90;;;24.60;45.00;;;;;;5064386;28;20519;-84
2021/08/04 04:05:28;;;;;;;0.90;0.90;;;24.50;44.90;;;;;;5063862;28;20427;-84
2021/08/04 04:07:56;;;;;;;1.07;1.07;;;24.50;44.90;;;;;;5063761;28;20480;-84
2021/08/04 04:10:24;;;;;;;1.03;0.70;;;24.50;44.90;;;;;;5063415;28;20519;-84
2021/08/04 04:12:52;;;;;;;0.90;0.90;;;24.50;44.90;;;;;;5063491;28;20469;-84
2021/08/04 04:15:21;;;;;;;0.90;0.90;;;24.50;45.00;;;;;;5063592;28;20461;-84
2021/08/04 04:17:49;;;;;;;0.90;0.90;;;24.40;44.80;;;;;;5064122;28;20420;-84
2021/08/04 04:20:17;;;;;;;0.80;0.80;;;24.50;44.90;;;;;;5063877;28;20425;-84
2021/08/04 04:22:45;;;;;;;0.80;0.80;;;24.40;44.80;;;;;;5063404;28;20447;-84
2021/08/04 04:25:14;;;;;;;0.90;0.90;;;24.50;44.90;;;;;;5063885;28;20438;-84
2021/08/04 04:27:42;;;;;;;1.07;1.07;;;24.40;44.90;;;;;;5063504;28;20470;-84
2021/08/04 04:30:10;;;;;;;0.90;0.80;;;24.40;44.90;;;;;;5063640;28;20489;-84
2021/08/04 04:32:40;;;;;;;0.90;0.90;;;24.40;44.80;;;;;;5066633;28;20520;-84
2021/08/04 04:35:09;;;;;;;0.70;0.70;;;24.40;44.80;;;;;;5067157;28;20428;-84
2021/08/04 04:37:37;;;;;;;0.90;0.90;;;24.40;44.90;;;;;;5067368;28;20446;-84
2021/08/04 04:40:06;;;;;;;1.10;1.00;;;24.40;44.90;;;;;;5067347;28;20447;-84
2021/08/04 04:42:34;;;;;;;0.90;0.90;;;24.40;44.90;;;;;;5067386;28;20495;-83
2021/08/04 04:45:02;;;;;;;0.90;0.90;;;24.40;44.90;;;;;;5067065;28;20486;-84
2021/08/04 04:47:30;;;;;;;0.80;0.80;;;24.30;44.80;;;;;;5067014;28;20583;-84
2021/08/04 04:50:00;;;;;;;1.00;0.80;;;24.30;44.90;;;;;;5066576;28;20451;-84
2021/08/04 04:52:28;;;;;;;0.90;0.90;;;24.30;44.80;;;;;;5066303;28;20465;-84
2021/08/04 04:54:56;;;;;;;0.90;0.90;;;24.30;44.80;;;;;;5066318;28;20458;-84
2021/08/04 04:57:24;;;;;;;0.90;0.90;;;24.30;44.90;;;;;;5066414;28;20540;-84
2021/08/04 04:59:52;;;;;;;0.80;0.80;;;24.30;44.80;;;;;;5065929;28;20416;-84
2021/08/04 05:02:20;;;;;;;1.20;1.10;;;24.30;44.90;;;;;;5066209;28;20438;-84
2021/08/04 05:04:48;;;;;;;0.70;0.70;;;24.30;44.90;;;;;;5066000;28;20532;-84
2021/08/04 05:07:17;;;;;;;0.90;0.90;;;24.30;44.90;;;;;;5065950;28;20444;-84
2021/08/04 05:09:45;;;;;;;1.43;1.20;;;24.30;44.80;;;;;;5066561;28;20469;-84
2021/08/04 05:12:13;;;;;;;0.90;0.90;;;24.30;44.80;;;;;;5066141;28;20401;-84
2021/08/04 05:14:41;;;;;;;1.30;0.87;;;24.30;44.80;;;;;;5066326;28;20424;-84
2021/08/04 05:17:12;;;;;;;1.10;0.90;;;24.30;44.80;;;;;;5066617;28;20417;-84
2021/08/04 05:19:40;;;;;;;0.90;0.90;;;24.30;44.80;;;;;;5066625;28;20536;-84
2021/08/04 05:22:08;;;;;;;1.10;1.10;;;24.40;44.90;;;;;;5066068;28;20470;-83
2021/08/04 05:24:37;;;;;;;0.90;0.90;;;24.30;44.60;;;;;;5066135;28;20554;-83
2021/08/04 05:27:05;;;;;;;1.00;1.00;;;24.40;44.60;;;;;;5065605;28;20506;-84
2021/08/04 05:29:33;;;;;;;0.90;0.90;;;24.50;44.70;;;;;;5066269;28;20441;-84
2021/08/04 05:32:01;;;;;;;1.60;0.97;;;24.50;44.70;;;;;;5065800;28;20445;-84
2021/08/04 05:34:33;;;;;;;1.00;0.80;;;24.50;44.70;;;;;;5066174;28;20443;-84
2021/08/04 05:37:01;;;;;;;1.07;1.00;;;24.50;44.70;;;;;;5066447;28;20487;-83
2021/08/04 05:39:29;;;;;;;1.17;1.07;;;24.50;44.60;;;;;;5066160;28;20420;-83
2021/08/04 05:41:58;;;;;;;1.00;1.00;;;24.50;44.50;;;;;;5065824;28;20442;-84
2021/08/04 05:44:26;;;;;;;0.80;0.80;;;24.50;44.50;;;;;;5065314;28;20520;-84
2021/08/04 05:46:54;;;;;;;0.87;0.87;;;24.50;44.60;;;;;;5065744;28;20466;-84
2021/08/04 05:49:23;;;;;;;0.97;0.97;;;24.50;44.60;;;;;;5066151;28;20479;-84
2021/08/04 05:51:51;;;;;;;0.97;0.97;;;24.50;44.50;;;;;;5066215;28;20473;-84
2021/08/04 05:54:19;;;;;;;0.93;0.93;;;24.50;44.50;;;;;;5065744;28;20506;-84
2021/08/04 05:56:47;;;;;;;1.40;1.30;;;24.60;44.60;;;;;;5065871;28;20434;-84
2021/08/04 05:59:16;;;;;;;1.00;1.00;;;24.60;44.50;;;;;;5065087;28;20416;-84
2021/08/04 06:01:44;;;;;;;1.10;1.10;;;24.60;44.60;;;;;;5065594;28;20408;-84
2021/08/04 06:04:14;;;;;;;0.97;0.97;;;24.60;44.60;;;;;;5065444;28;20408;-84
2021/08/04 06:06:42;;;;;;;1.20;1.20;;;24.60;44.40;;;;;;5065265;28;20490;-84
2021/08/04 06:09:10;;;;;;;1.83;1.03;;;24.60;44.50;;;;;;5065968;28;20420;-84
2021/08/04 06:11:38;;;;;;;1.00;1.00;;;24.60;44.50;;;;;;5064947;28;20480;-84
2021/08/04 06:14:06;;;;;;;1.37;1.27;;;24.60;44.50;;;;;;5065570;28;20516;-84
2021/08/04 06:16:36;;;;;;;1.57;1.47;;;24.70;44.60;;;;;;5065207;28;20495;-84
2021/08/04 06:19:04;;;;;;;1.20;1.10;;;24.70;44.40;;;;;;5065520;28;20504;-84
2021/08/04 06:21:32;;;;;;;1.10;1.10;;;24.70;44.50;;;;;;5065303;28;20501;-84
2021/08/04 06:24:00;;;;;;;1.20;1.10;;;24.70;44.40;;;;;;5065296;28;20496;-84
2021/08/04 06:26:28;;;;;;;1.47;1.37;;;24.70;44.40;;;;;;5065105;28;20413;-84
2021/08/04 06:28:56;;;;;;;1.80;1.70;;;24.80;44.60;;;;;;5064597;28;20452;-84
2021/08/04 06:31:24;;;;;;;1.57;1.50;;;24.80;44.40;;;;;;5065139;28;20457;-84
2021/08/04 06:33:54;;;;;;;1.50;1.40;;;24.90;44.30;;;;;;5065444;28;20408;-84
2021/08/04 06:36:21;;;;;;;1.50;1.40;;;24.90;44.30;;;;;;5064925;28;20491;-84
2021/08/04 06:38:49;;;;;;;1.83;1.60;;;25.00;44.40;;;;;;5064850;28;20412;-84
2021/08/04 06:41:17;;;;;;;1.37;1.33;;;25.00;44.30;;;;;;5065027;28;20507;-84
2021/08/04 06:43:45;;;;;;;1.70;1.60;;;25.10;44.40;;;;;;5064370;28;20427;-84
2021/08/04 06:46:14;;;;;;;1.30;1.30;;;25.10;44.20;;;;;;5064575;28;20409;-84
2021/08/04 06:48:43;;;;;;;1.70;1.27;;;25.20;44.30;;;;;;5064521;28;20541;-84
2021/08/04 06:51:14;;;;;;;1.50;1.40;;;25.20;44.20;;;;;;5064821;28;20449;-84
2021/08/04 06:53:42;;;;;;;1.53;1.43;;;25.30;44.20;;;;;;5064650;28;20453;-84
2021/08/04 06:56:10;;;;;;;1.50;1.20;;;25.40;44.20;;;;;;5063719;28;20472;-85
2021/08/04 06:58:38;;;;;;;1.40;1.40;;;25.40;44.00;;;;;;5064489;28;20498;-84
2021/08/04 07:01:06;;;;;;;1.50;1.40;;;25.40;44.00;;;;;;5064263;28;20437;-85
2021/08/04 07:03:38;;;;;;;1.20;1.20;;;25.40;44.00;;;;;;5064043;28;20438;-85
2021/08/04 07:06:06;;;;;;;1.27;1.17;;;25.40;44.10;;;;;;5064403;28;20401;-85
2021/08/04 07:08:36;;;;;;;1.30;1.30;;;25.50;44.00;;;;;;5064328;28;20484;-84
2021/08/04 07:11:03;;;;;;;1.00;1.00;;;25.50;44.00;;;;;;5064598;28;20453;-86
2021/08/04 07:13:31;;;;;;;1.33;1.20;;;25.50;44.10;;;;;;5064480;28;20444;-86
2021/08/04 07:15:59;;;;;;;1.17;1.17;;;25.50;44.10;;;;;;5064347;28;20519;-86
2021/08/04 07:18:27;;;;;;;1.07;1.07;;;25.60;44.10;;;;;;5064403;28;20445;-86
2021/08/04 07:20:55;;;;;;;1.00;1.00;;;25.70;44.10;;;;;;5064444;28;20508;-87
2021/08/04 07:23:26;;;;;;;1.27;1.20;;;25.70;44.20;;;;;;5064237;28;20417;-86
2021/08/04 07:25:56;;;;;;;1.00;1.00;;;25.70;44.10;;;;;;5064269;28;20511;-87
2021/08/04 07:28:24;;;;;;;1.20;1.20;;;25.70;44.20;;;;;;5064160;28;20469;-85
2021/08/04 07:30:52;;;;;;;1.00;1.00;;;25.70;44.20;;;;;;5064553;28;20477;-85
2021/08/04 07:33:19;;;;;;;1.30;1.20;;;25.70;44.10;;;;;;5064206;28;20419;-86
2021/08/04 07:35:47;;;;;;;2.30;1.10;;;25.70;44.20;;;;;;5064375;28;20519;-88
2021/08/04 07:38:15;;;;;;;1.20;1.10;;;25.80;44.20;;;;;;5064404;28;20442;-86
2021/08/04 07:40:43;;;;;;;1.10;1.10;;;25.80;44.20;;;;;;5064733;28;20431;-86
2021/08/04 07:43:14;;;;;;;1.00;1.00;;;25.80;44.40;;;;;;5064313;28;20423;-86
2021/08/04 07:45:42;;;;;;;1.30;1.20;;;25.80;44.30;;;;;;5064143;28;20416;-86
2021/08/04 07:48:10;;;;;;;1.10;1.03;;;25.90;44.20;;;;;;5063691;28;20440;-86
2021/08/04 07:50:38;;;;;;;1.43;1.20;;;25.80;44.30;;;;;;5063909;28;20430;-86
2021/08/04 07:53:06;;;;;;;1.00;1.00;;;25.90;44.40;;;;;;5064208;28;20430;-86
2021/08/04 07:55:34;;;;;;;1.10;1.10;;;25.90;44.30;;;;;;5064117;28;20465;-86
2021/08/04 07:58:05;;;;;;;1.10;1.10;;;26.00;44.40;;;;;;5064165;28;20430;-86
2021/08/04 08:00:34;;;;;;;1.10;1.10;;;26.00;44.30;;;;;;5063807;28;20440;-86
2021/08/04 08:03:03;;;;;;;1.23;1.00;;;26.10;44.40;;;;;;5063379;28;20481;-86
2021/08/04 08:05:31;;;;;;;1.00;1.00;;;26.20;44.40;;;;;;5064080;28;20449;-86
2021/08/04 08:08:03;;;;;;;0.90;0.90;;;26.30;44.40;;;;;;5067029;28;20484;-87
2021/08/04 08:10:31;;;;;;;1.20;1.10;;;26.40;44.30;;;;;;5067447;28;20442;-86
2021/08/04 08:12:59;;;;;;;1.17;1.17;;;26.50;44.40;;;;;;5067663;28;20429;-86
2021/08/04 08:15:28;;;;;;;1.00;1.00;;;26.60;44.20;;;;;;5068102;28;20448;-86
2021/08/04 08:17:57;;;;;;;1.27;1.17;;;26.70;44.00;;;;;;5068355;28;20505;-86
2021/08/04 08:20:26;;;;;;;0.90;0.90;;;26.70;43.80;;;;;;5063946;28;20479;-86
2021/08/04 08:22:54;;;;;;;1.30;0.90;;;26.70;43.70;;;;;;5066042;28;20491;-86
2021/08/04 08:25:22;;;;;;;1.00;1.00;;;26.80;43.70;;;;;;5067227;28;20540;-86
2021/08/04 08:27:50;;;;;;;1.20;1.10;;;26.80;43.90;;;;;;5066620;28;20424;-86
2021/08/04 08:30:18;;;;;;;1.00;1.00;;;26.80;43.90;;;;;;5064321;28;20428;-86
2021/08/04 08:32:48;;;;;;;1.10;1.10;;;26.80;43.80;;;;;;5066542;28;20449;-86
2021/08/04 08:35:18;;;;;;;1.10;1.10;;;26.80;43.80;;;;;;5066463;28;20516;-85
2021/08/04 08:37:46;;;;;;;1.00;1.00;;;26.80;43.80;;;;;;5066595;28;20451;-85
2021/08/04 08:40:15;;;;;;;1.17;1.10;;;26.80;43.70;;;;;;5066752;28;20397;-86
2021/08/04 08:42:43;;;;;;;0.77;0.77;;;26.80;43.80;;;;;;5066973;28;20522;-85
2021/08/04 08:45:12;;;;;;;2.90;1.10;;;26.90;43.80;;;;;;5066390;28;20433;-85
2021/08/04 08:47:41;;;;;;;1.00;1.00;;;26.90;43.80;;;;;;5066640;28;20438;-85
2021/08/04 08:50:14;;;;;;;0.90;0.90;;;26.90;43.80;;;;;;5067286;28;20494;-85
2021/08/04 08:52:44;;;;;;;0.90;0.90;;;26.90;43.80;;;;;;5066383;28;20445;-86
2021/08/04 08:55:15;;;;;;;0.90;0.90;;;27.00;43.90;;;;;;5066090;28;20412;-86
2021/08/04 08:57:43;;;;;;;1.00;1.00;;;27.00;43.80;;;;;;5064520;28;20496;-86
2021/08/04 09:00:13;;;;;;;2.20;1.33;;;27.00;43.90;;;;;;5066368;28;20420;-85
2021/08/04 09:02:41;;;;;;;1.13;1.03;;;27.00;43.90;;;;;;5063952;28;20497;-85
2021/08/04 09:05:11;;;;;;;1.10;1.00;;;27.00;43.80;;;;;;5066313;28;20467;-85
2021/08/04 09:07:39;;;;;;;1.90;1.00;;;27.10;44.00;;;;;;5063433;28;20441;-85
2021/08/04 09:10:27;;;;;;;0.80;0.80;;;27.10;43.90;;;;;;5065614;28;20468;-85
2021/08/04 09:12:56;;;;;;;1.00;1.00;;;27.10;43.90;;;;;;5065391;28;20487;-86
2021/08/04 09:15:25;;;;;;;1.10;0.90;;;27.20;43.90;;;;;;5065888;28;20466;-85
2021/08/04 09:18:01;;;;;;;1.33;1.20;;;27.20;44.00;;;;;;5065100;28;20458;-85
2021/08/04 09:20:32;;;;;;;0.90;0.90;;;27.20;44.00;;;;;;5060323;28;20454;-85
2021/08/04 09:23:03;;;;;;;1.20;1.00;;;27.20;44.00;;;;;;5065624;28;20430;-86
2021/08/04 09:25:32;;;;;;;1.17;1.10;;;27.20;43.90;;;;;;5066087;28;20433;-86
2021/08/04 09:28:00;;;;;;;1.10;0.93;;;27.30;44.00;;;;;;5063305;28;20555;-86
2021/08/04 09:30:32;;;;;;;0.90;0.90;;;27.30;44.00;;;;;;5066136;28;20480;-86
2021/08/04 09:33:14;;;;;;;0.90;0.90;;;27.40;44.00;;;;;;5065365;28;20589;-86
2021/08/04 09:35:44;;;;;;;1.20;1.20;;;27.40;44.00;;;;;;5063158;28;20467;-85
2021/08/04 09:38:13;;;;;;;1.43;1.00;;;27.40;44.00;;;;;;5065375;28;20565;-85
2021/08/04 09:40:46;;;;;;;1.00;1.00;;;27.50;43.90;;;;;;5063440;28;20416;-85
2021/08/04 09:43:23;;;;;;;0.97;0.97;;;27.60;43.90;;;;;;5065656;28;20516;-85
2021/08/04 09:45:52;;;;;;;0.93;0.93;;;27.60;43.80;;;;;;5063935;28;20437;-85
2021/08/04 09:48:24;;;;;;;1.10;1.00;;;27.60;43.80;;;;;;5065511;28;20434;-85
2021/08/04 09:50:53;;;;;;;1.13;1.10;;;27.60;43.80;;;;;;5066014;28;20407;-86
2021/08/04 09:53:23;;;;;;;1.10;0.83;;;27.70;43.80;;;;;;5064992;28;20533;-85
2021/08/04 09:56:08;;;;;;;0.73;0.73;;;27.80;43.70;;;;;;5068508;28;20491;-85
2021/08/04 09:58:38;;;;;;;1.63;0.80;;;27.90;43.60;;;;;;5069092;28;20462;-85
2021/08/04 10:01:07;;;;;;;1.03;1.03;;;28.00;43.70;;;;;;5064945;28;20429;-85
2021/08/04 10:03:37;;;;;;;0.97;0.87;;;28.00;43.60;;;;;;5065158;28;20434;-85
2021/08/04 10:06:07;;;;;;;1.10;1.00;;;28.20;43.60;;;;;;5065321;28;20477;-85
2021/08/04 10:08:54;;;;;;;1.07;1.07;;;28.30;43.40;;;;;;5062727;28;20444;-85
2021/08/04 10:11:24;;;;;;;0.90;0.90;;;28.40;43.30;;;;;;5064786;28;20408;-85
2021/08/04 10:13:55;;;;;;;2.57;0.90;;;28.50;43.10;;;;;;5065278;28;20461;-85
2021/08/04 10:16:24;;;;;;;1.10;1.10;;;28.60;43.00;;;;;;5064700;28;20441;-85
2021/08/04 10:18:52;;;;;;;0.90;0.90;;;28.70;43.10;;;;;;5061919;28;20453;-85
2021/08/04 10:21:21;;;;;;;0.80;0.80;;;28.90;43.00;;;;;;5064331;28;20438;-85
2021/08/04 10:23:49;;;;;;;1.20;1.10;;;29.10;42.80;;;;;;5064732;28;20495;-85
2021/08/04 10:26:17;;;;;;;2.07;0.93;;;29.20;42.40;;;;;;5064516;28;20426;-85
2021/08/04 10:28:51;;;;;;;1.00;1.00;;;29.50;42.10;;;;;;5064223;28;20442;-85
2021/08/04 10:31:20;;;;;;;1.10;1.00;;;29.60;42.10;;;;;;5064319;28;20422;-85
2021/08/04 10:33:48;;;;;;;0.90;0.90;;;29.80;41.80;;;;;;5064454;28;20469;-85
2021/08/04 10:36:17;;;;;;;0.90;0.90;;;30.00;41.60;;;;;;5064309;28;20444;-85
2021/08/04 10:38:46;;;;;;;1.00;1.00;;;30.10;41.30;;;;;;5064010;28;20524;-85
2021/08/04 10:41:15;;;;;;;1.47;0.90;;;30.20;41.00;;;;;;5061797;28;20430;-86
2021/08/04 10:43:45;;;;;;;0.90;0.90;;;30.40;41.00;;;;;;5064099;28;20434;-85
2021/08/04 10:46:37;;;;;;;0.90;0.90;;;30.50;40.80;;;;;;5061700;28;20465;-85
2021/08/04 10:49:19;;;;;;;3.90;0.90;;;30.60;40.50;;;;;;5062911;28;20477;-85
2021/08/04 10:52:21;;;;;;;1.60;0.90;;;30.70;40.40;;;;;;5062814;28;20430;-86
2021/08/04 10:55:09;;;;;;;1.00;1.00;;;30.90;40.30;;;;;;5061527;28;20433;-80
2021/08/04 10:58:19;;;;;;;1.00;0.90;;;31.00;40.10;;;;;;5044670;28;20434;-84
2021/08/04 11:00:50;;;;;;;1.10;1.00;;;31.10;40.00;;;;;;5044183;28;20456;-84
2021/08/04 11:03:57;;;;;;;1.00;1.00;;;31.10;39.80;;;;;;5044488;28;20446;-83
2021/08/04 11:06:27;;;;;;;1.43;0.93;;;31.10;39.70;;;;;;5063083;28;20445;-87
2021/08/04 11:09:32;;;;;;;0.90;0.90;;;31.10;40.00;;;;;;5064054;28;20450;-86
2021/08/04 11:12:02;;;;;;;1.20;1.20;;;31.00;40.00;;;;;;5063482;28;20426;-86
2021/08/04 11:14:36;;;;;;;1.93;1.00;;;30.90;40.40;;;;;;5063704;28;20441;-86
2021/08/04 11:17:05;;;;;;;1.13;0.97;;;30.80;40.50;;;;;;5064084;28;20471;-85
2021/08/04 11:19:35;;;;;;;0.90;0.90;;;30.80;40.60;;;;;;5064024;28;20433;-84
2021/08/04 11:22:17;;;;;;;2.03;0.80;;;30.90;40.70;;;;;;5064089;28;20430;-86
2021/08/04 11:24:52;;;;;;;1.17;1.00;;;31.00;40.70;;;;;;5064398;28;20484;-86
2021/08/04 11:27:21;;;;;;;1.10;1.00;;;31.10;40.50;;;;;;5063747;28;20503;-85
2021/08/04 11:29:49;;;;;;;0.90;0.80;;;31.10;40.40;;;;;;5063815;28;20469;-87
2021/08/04 11:32:17;;;;;;;0.90;0.90;;;31.20;40.50;;;;;;5061636;28;20441;-86
2021/08/04 11:34:45;;;;;;;0.93;0.93;;;31.20;40.30;;;;;;5064447;28;20469;-87
2021/08/04 11:37:13;;;;;;;1.10;1.00;;;31.10;40.30;;;;;;5063402;28;20511;-86
2021/08/04 11:39:57;;;;;;;1.20;0.93;;;31.10;40.40;;;;;;5062860;28;20426;-86
2021/08/04 11:42:25;;;;;;;1.73;1.00;;;31.00;40.50;;;;;;5057724;28;20506;-87
2021/08/04 11:44:53;;;;;;;1.60;1.00;;;31.00;40.70;;;;;;5071148;28;20458;-86
2021/08/04 11:47:24;;;;;;;1.93;1.03;;;31.00;40.70;;;;;;5070086;28;20523;-87
2021/08/04 11:49:56;;;;;;;1.20;1.10;;;31.00;40.70;;;;;;5067651;28;20457;-85
2021/08/04 11:52:25;;;;;;;1.00;1.00;;;31.00;40.50;;;;;;5068130;28;20448;-86
2021/08/04 11:54:58;;;;;;;1.00;1.00;;;31.00;40.60;;;;;;5067852;28;20449;-85
2021/08/04 11:57:28;;;;;;;1.17;1.07;;;31.10;40.80;;;;;;5068141;28;20449;-86
2021/08/04 11:59:56;;;;;;;1.10;1.10;;;31.30;40.60;;;;;;5067993;28;20559;-86
2021/08/04 12:02:40;;;;;;;2.10;0.97;;;31.30;40.20;;;;;;5066564;28;20446;-84
2021/08/04 12:05:30;;;;;;;1.93;1.20;;;31.20;40.20;;;;;;5069114;28;20443;-84
2021/08/04 12:08:00;;;;;;;1.10;1.00;;;31.20;40.40;;;;;;5069892;28;20432;-84
2021/08/04 12:10:51;;;;;;;1.43;0.90;;;31.30;40.60;;;;;;5067861;28;20461;-83
2021/08/04 12:13:19;;;;;;;1.30;1.20;;;31.30;40.50;;;;;;5066701;28;20438;-83
2021/08/04 12:19:42;;;;;;;1.07;1.07;;;31.70;40.40;;;;;;5033138;28;20439;-84
2021/08/04 12:22:25;;;;;;;2.40;1.07;;;31.90;39.60;;;;;;5067327;28;20449;-85
2021/08/04 12:25:15;;;;;;;1.10;1.00;;;32.10;39.10;;;;;;5066321;28;20421;-82
2021/08/04 12:27:46;;;;;;;1.63;1.53;;;32.10;39.10;;;;;;5064499;28;20523;-85
2021/08/04 12:30:19;;;;;;;0.93;0.93;;;32.10;38.80;;;;;;5067437;28;20457;-83
2021/08/04 12:33:01;;;;;;;0.90;0.83;;;32.20;38.80;;;;;;5062536;28;20602;-84
2021/08/04 12:35:38;;;;;;;1.10;0.80;;;32.20;38.80;;;;;;5065256;28;20426;-84
2021/08/04 12:38:07;;;;;;;1.73;1.17;;;32.10;39.00;;;;;;5064784;28;20503;-84
2021/08/04 12:40:35;;;;;;;0.97;0.93;;;32.20;38.90;;;;;;5067130;28;20469;-83
2021/08/04 12:43:04;;;;;;;1.10;1.10;;;32.10;38.80;;;;;;5059182;28;20522;-80
2021/08/04 12:45:32;;;;;;;1.00;1.00;;;32.10;39.00;;;;;;5067462;28;20495;-84
2021/08/04 12:48:01;;;;;;;0.90;0.90;;;32.00;39.10;;;;;;5066617;28;20426;-85
2021/08/04 12:50:31;;;;;;;1.63;1.07;;;32.00;39.30;;;;;;5066578;28;20476;-84
2021/08/04 12:52:59;;;;;;;1.40;1.30;;;31.90;39.40;;;;;;5065318;28;20477;-86
2021/08/04 12:56:00;;;;;;;2.83;1.43;;;32.00;39.80;;;;;;5066953;28;20437;-82
2021/08/04 12:59:23;;;;;;;1.33;1.00;;;32.10;38.90;;;;;;5063799;28;20507;-81
2021/08/04 13:02:09;;;;;;;1.57;1.13;;;32.20;38.80;;;;;;5047289;28;20501;-84
2021/08/04 13:04:41;;;;;;;1.27;1.10;;;32.30;38.50;;;;;;5067286;28;20452;-83
2021/08/04 13:07:38;;;;;;;1.80;1.03;;;32.30;38.70;;;;;;5051013;28;20449;-82
2021/08/04 13:10:56;;;;;;;3.07;1.10;;;32.40;38.50;;;;;;5062666;28;20527;-82